Main page
METAR-TAF:

METAR-TAF

Airports :

Edinburgh, Scotland

Edinburgh Airport

latitude: 55-57N, longitude: 003-21W, elevation: 41 m

Current weather observation

The report was made 24 minutes ago, at 04:20 UTC
Wind 7 kt from the Southwest
Temperature 12°C
Humidity 94%
Pressure 1010 hPa
Visibility 10 km or more
no clouds below 1500 m and no cumulonimbus

METAR: EGPH 240420Z 23007KT CAVOK 12/11 Q1010

Time: 05:44 (04:44 UTC)

Forecast

The report was made 5 hours and 45 minutes ago, at 22:59 UTC
Forecast valid from 24 at 00 UTC to 24 at 24 UTC
Wind 7 kt from the West
Visibility 10 km or more
Few clouds at a height of 3000 ft
Probability 30% :
Temporary
from 24 at 00 UTC to 24 at 03 UTC
Visibility: 6000 m
rain showers
Probability 40% :
Temporary
from 24 at 09 UTC to 24 at 20 UTC
Visibility: 6000 m
rain showers

TAF: EGPH 232259Z 2400/2424 26007KT 9999 FEW030 PROB30 TEMPO 2400/2403 6000 SHRA PROB40 TEMPO 2409/2420 6000 SHRA

Weather observations and forecasts of more than 4000 airports (METAR and TAF reports).

The available stations are represented by yellow and red dots on the map.

Hover mouse over dot to see the name of the station.

Then click to see weather observations and forecasts.

To change the map : click on the green buttons with a black cross to zoom in, on the green button with a dash to zoom out, or on the green arrows for adjacent maps.


METAR-TAF: